sensor_id;sensor_type;location;lat;lon;timestamp;P1;durP1;ratioP1;P2;durP2;ratioP2
3881;SDS011;1956;53.482;10.238;2022-07-29T00:01:14;2.50;;;1.50;;
3881;SDS011;1956;53.482;10.238;2022-07-29T00:06:15;3.40;;;1.40;;
3881;SDS011;1956;53.482;10.238;2022-07-29T00:11:16;5.43;;;1.70;;
3881;SDS011;1956;53.482;10.238;2022-07-29T00:16:16;2.60;;;1.87;;
3881;SDS011;1956;53.482;10.238;2022-07-29T00:21:17;2.83;;;1.60;;
3881;SDS011;1956;53.482;10.238;2022-07-29T00:26:17;1.77;;;1.50;;
3881;SDS011;1956;53.482;10.238;2022-07-29T00:31:17;5.03;;;1.90;;
3881;SDS011;1956;53.482;10.238;2022-07-29T00:36:18;2.27;;;1.73;;
3881;SDS011;1956;53.482;10.238;2022-07-29T00:41:18;2.00;;;1.60;;
3881;SDS011;1956;53.482;10.238;2022-07-29T00:46:19;4.03;;;1.77;;
3881;SDS011;1956;53.482;10.238;2022-07-29T00:51:19;5.37;;;1.60;;
3881;SDS011;1956;53.482;10.238;2022-07-29T00:56:19;3.47;;;1.90;;
3881;SDS011;1956;53.482;10.238;2022-07-29T01:01:20;2.00;;;1.90;;
3881;SDS011;1956;53.482;10.238;2022-07-29T01:06:20;3.57;;;2.27;;
3881;SDS011;1956;53.482;10.238;2022-07-29T01:11:21;3.17;;;1.87;;
3881;SDS011;1956;53.482;10.238;2022-07-29T01:16:23;2.20;;;2.00;;
3881;SDS011;1956;53.482;10.238;2022-07-29T01:21:40;2.70;;;2.13;;
3881;SDS011;1956;53.482;10.238;2022-07-29T01:26:57;4.13;;;2.60;;
3881;SDS011;1956;53.482;10.238;2022-07-29T01:32:07;5.00;;;2.30;;
3881;SDS011;1956;53.482;10.238;2022-07-29T01:37:20;15.43;;;2.67;;
3881;SDS011;1956;53.482;10.238;2022-07-29T01:42:30;6.97;;;2.83;;
3881;SDS011;1956;53.482;10.238;2022-07-29T01:47:37;2.27;;;1.80;;
3881;SDS011;1956;53.482;10.238;2022-07-29T01:52:49;3.90;;;2.20;;
3881;SDS011;1956;53.482;10.238;2022-07-29T01:57:53;4.63;;;1.93;;
3881;SDS011;1956;53.482;10.238;2022-07-29T02:02:54;10.53;;;2.77;;
3881;SDS011;1956;53.482;10.238;2022-07-29T02:07:56;3.77;;;2.20;;
3881;SDS011;1956;53.482;10.238;2022-07-29T02:12:58;11.03;;;2.67;;
3881;SDS011;1956;53.482;10.238;2022-07-29T02:18:15;3.73;;;1.87;;
3881;SDS011;1956;53.482;10.238;2022-07-29T02:23:18;2.87;;;2.20;;
3881;SDS011;1956;53.482;10.238;2022-07-29T02:28:21;9.87;;;2.30;;
3881;SDS011;1956;53.482;10.238;2022-07-29T02:33:22;4.90;;;2.00;;
3881;SDS011;1956;53.482;10.238;2022-07-29T02:38:24;3.30;;;2.10;;
3881;SDS011;1956;53.482;10.238;2022-07-29T02:43:43;4.10;;;2.30;;
3881;SDS011;1956;53.482;10.238;2022-07-29T02:48:50;4.00;;;2.30;;
3881;SDS011;1956;53.482;10.238;2022-07-29T02:53:52;7.13;;;2.57;;
3881;SDS011;1956;53.482;10.238;2022-07-29T02:58:56;8.00;;;2.60;;
3881;SDS011;1956;53.482;10.238;2022-07-29T03:03:59;7.80;;;2.50;;
3881;SDS011;1956;53.482;10.238;2022-07-29T03:09:01;3.70;;;2.20;;
3881;SDS011;1956;53.482;10.238;2022-07-29T03:14:02;9.63;;;2.43;;
3881;SDS011;1956;53.482;10.238;2022-07-29T03:19:03;3.43;;;2.10;;
3881;SDS011;1956;53.482;10.238;2022-07-29T03:24:04;4.70;;;2.17;;
3881;SDS011;1956;53.482;10.238;2022-07-29T03:29:04;3.83;;;2.37;;
3881;SDS011;1956;53.482;10.238;2022-07-29T03:34:05;4.40;;;2.43;;
3881;SDS011;1956;53.482;10.238;2022-07-29T03:39:05;4.60;;;2.30;;
3881;SDS011;1956;53.482;10.238;2022-07-29T03:44:06;4.40;;;2.30;;
3881;SDS011;1956;53.482;10.238;2022-07-29T03:49:07;3.37;;;2.00;;
3881;SDS011;1956;53.482;10.238;2022-07-29T03:54:08;3.87;;;2.43;;
3881;SDS011;1956;53.482;10.238;2022-07-29T03:59:08;3.83;;;2.20;;
3881;SDS011;1956;53.482;10.238;2022-07-29T04:04:10;8.83;;;2.40;;
3881;SDS011;1956;53.482;10.238;2022-07-29T04:09:11;4.17;;;2.20;;
3881;SDS011;1956;53.482;10.238;2022-07-29T04:14:11;4.40;;;2.57;;
3881;SDS011;1956;53.482;10.238;2022-07-29T04:19:12;5.60;;;2.60;;
3881;SDS011;1956;53.482;10.238;2022-07-29T04:24:12;4.47;;;2.50;;
3881;SDS011;1956;53.482;10.238;2022-07-29T04:29:13;3.03;;;2.10;;
3881;SDS011;1956;53.482;10.238;2022-07-29T04:34:16;8.07;;;2.20;;
3881;SDS011;1956;53.482;10.238;2022-07-29T04:39:17;3.23;;;2.17;;
3881;SDS011;1956;53.482;10.238;2022-07-29T04:44:18;8.37;;;2.20;;
3881;SDS011;1956;53.482;10.238;2022-07-29T04:49:19;2.90;;;1.93;;
3881;SDS011;1956;53.482;10.238;2022-07-29T04:54:19;5.23;;;2.37;;
3881;SDS011;1956;53.482;10.238;2022-07-29T04:59:19;7.87;;;2.37;;
3881;SDS011;1956;53.482;10.238;2022-07-29T05:04:20;14.40;;;2.47;;
3881;SDS011;1956;53.482;10.238;2022-07-29T05:09:20;3.27;;;2.10;;
3881;SDS011;1956;53.482;10.238;2022-07-29T05:14:20;6.97;;;2.20;;
3881;SDS011;1956;53.482;10.238;2022-07-29T05:19:21;7.10;;;2.30;;
3881;SDS011;1956;53.482;10.238;2022-07-29T05:24:21;8.13;;;2.20;;
3881;SDS011;1956;53.482;10.238;2022-07-29T05:29:22;3.23;;;2.10;;
3881;SDS011;1956;53.482;10.238;2022-07-29T05:34:22;4.83;;;1.90;;
3881;SDS011;1956;53.482;10.238;2022-07-29T05:39:23;6.00;;;2.40;;
3881;SDS011;1956;53.482;10.238;2022-07-29T05:44:24;7.33;;;2.00;;
3881;SDS011;1956;53.482;10.238;2022-07-29T05:49:24;4.60;;;2.43;;
3881;SDS011;1956;53.482;10.238;2022-07-29T05:54:25;5.83;;;2.00;;
3881;SDS011;1956;53.482;10.238;2022-07-29T05:59:26;1.87;;;1.43;;
3881;SDS011;1956;53.482;10.238;2022-07-29T06:04:26;11.53;;;2.60;;
3881;SDS011;1956;53.482;10.238;2022-07-29T06:09:27;5.03;;;2.10;;
3881;SDS011;1956;53.482;10.238;2022-07-29T06:14:27;10.43;;;2.40;;
3881;SDS011;1956;53.482;10.238;2022-07-29T06:19:28;4.70;;;2.13;;
3881;SDS011;1956;53.482;10.238;2022-07-29T06:24:28;2.40;;;2.00;;
3881;SDS011;1956;53.482;10.238;2022-07-29T06:29:29;8.90;;;2.20;;
3881;SDS011;1956;53.482;10.238;2022-07-29T06:34:30;6.37;;;1.93;;
3881;SDS011;1956;53.482;10.238;2022-07-29T06:39:31;4.87;;;2.30;;
3881;SDS011;1956;53.482;10.238;2022-07-29T06:44:31;8.00;;;2.90;;
3881;SDS011;1956;53.482;10.238;2022-07-29T06:49:33;4.67;;;2.53;;
3881;SDS011;1956;53.482;10.238;2022-07-29T06:54:34;8.90;;;2.60;;
3881;SDS011;1956;53.482;10.238;2022-07-29T06:59:34;7.07;;;3.07;;
3881;SDS011;1956;53.482;10.238;2022-07-29T07:04:34;5.10;;;2.77;;
3881;SDS011;1956;53.482;10.238;2022-07-29T07:09:35;3.43;;;1.97;;
3881;SDS011;1956;53.482;10.238;2022-07-29T07:14:35;7.67;;;2.37;;
3881;SDS011;1956;53.482;10.238;2022-07-29T07:19:36;7.23;;;2.20;;
3881;SDS011;1956;53.482;10.238;2022-07-29T07:24:36;6.17;;;2.40;;
3881;SDS011;1956;53.482;10.238;2022-07-29T07:29:37;5.47;;;2.00;;
3881;SDS011;1956;53.482;10.238;2022-07-29T07:34:40;3.40;;;2.00;;
3881;SDS011;1956;53.482;10.238;2022-07-29T07:39:41;4.57;;;2.33;;
3881;SDS011;1956;53.482;10.238;2022-07-29T07:44:41;4.33;;;1.53;;
3881;SDS011;1956;53.482;10.238;2022-07-29T07:49:42;3.03;;;1.90;;
3881;SDS011;1956;53.482;10.238;2022-07-29T07:54:42;3.67;;;1.97;;
3881;SDS011;1956;53.482;10.238;2022-07-29T07:59:43;4.90;;;2.10;;
3881;SDS011;1956;53.482;10.238;2022-07-29T08:04:44;5.37;;;2.30;;
3881;SDS011;1956;53.482;10.238;2022-07-29T08:09:44;3.93;;;2.30;;
3881;SDS011;1956;53.482;10.238;2022-07-29T08:14:45;4.30;;;1.83;;
3881;SDS011;1956;53.482;10.238;2022-07-29T08:19:45;4.60;;;2.10;;
3881;SDS011;1956;53.482;10.238;2022-07-29T08:24:47;5.80;;;2.37;;
3881;SDS011;1956;53.482;10.238;2022-07-29T08:29:55;6.57;;;2.30;;
3881;SDS011;1956;53.482;10.238;2022-07-29T08:34:56;4.27;;;1.77;;
3881;SDS011;1956;53.482;10.238;2022-07-29T08:39:57;6.30;;;1.90;;
3881;SDS011;1956;53.482;10.238;2022-07-29T08:44:57;4.03;;;1.90;;
3881;SDS011;1956;53.482;10.238;2022-07-29T08:49:58;5.80;;;1.90;;
3881;SDS011;1956;53.482;10.238;2022-07-29T08:54:59;9.27;;;2.50;;
3881;SDS011;1956;53.482;10.238;2022-07-29T09:00:00;6.07;;;2.40;;
3881;SDS011;1956;53.482;10.238;2022-07-29T09:05:01;2.70;;;1.80;;
3881;SDS011;1956;53.482;10.238;2022-07-29T09:10:03;5.13;;;2.10;;
3881;SDS011;1956;53.482;10.238;2022-07-29T09:15:05;5.87;;;2.07;;
3881;SDS011;1956;53.482;10.238;2022-07-29T09:20:09;10.87;;;2.03;;
3881;SDS011;1956;53.482;10.238;2022-07-29T09:25:14;2.50;;;1.67;;
3881;SDS011;1956;53.482;10.238;2022-07-29T09:30:32;2.23;;;1.80;;
3881;SDS011;1956;53.482;10.238;2022-07-29T09:35:32;1.87;;;1.43;;
3881;SDS011;1956;53.482;10.238;2022-07-29T09:40:33;2.77;;;1.90;;
3881;SDS011;1956;53.482;10.238;2022-07-29T09:45:35;4.57;;;1.60;;
3881;SDS011;1956;53.482;10.238;2022-07-29T09:50:38;2.80;;;1.73;;
3881;SDS011;1956;53.482;10.238;2022-07-29T09:55:46;2.97;;;1.30;;
3881;SDS011;1956;53.482;10.238;2022-07-29T10:00:51;3.60;;;1.33;;
3881;SDS011;1956;53.482;10.238;2022-07-29T10:06:08;2.60;;;1.80;;
3881;SDS011;1956;53.482;10.238;2022-07-29T10:11:16;5.90;;;1.60;;
3881;SDS011;1956;53.482;10.238;2022-07-29T10:16:17;11.00;;;1.80;;
3881;SDS011;1956;53.482;10.238;2022-07-29T10:21:17;2.10;;;1.57;;
3881;SDS011;1956;53.482;10.238;2022-07-29T10:26:18;2.30;;;1.50;;
3881;SDS011;1956;53.482;10.238;2022-07-29T10:31:22;1.60;;;1.43;;
3881;SDS011;1956;53.482;10.238;2022-07-29T10:36:54;5.10;;;1.83;;
3881;SDS011;1956;53.482;10.238;2022-07-29T10:42:10;3.67;;;1.53;;
3881;SDS011;1956;53.482;10.238;2022-07-29T10:47:24;6.03;;;1.30;;
3881;SDS011;1956;53.482;10.238;2022-07-29T10:52:51;2.10;;;1.00;;
3881;SDS011;1956;53.482;10.238;2022-07-29T11:09:04;2.67;;;1.60;;
3881;SDS011;1956;53.482;10.238;2022-07-29T11:14:15;1.57;;;1.27;;
3881;SDS011;1956;53.482;10.238;2022-07-29T11:19:20;5.40;;;1.73;;
3881;SDS011;1956;53.482;10.238;2022-07-29T11:24:28;7.10;;;1.27;;
3881;SDS011;1956;53.482;10.238;2022-07-29T11:29:30;3.43;;;1.87;;
3881;SDS011;1956;53.482;10.238;2022-07-29T11:34:32;3.83;;;1.87;;
3881;SDS011;1956;53.482;10.238;2022-07-29T11:39:33;6.30;;;1.27;;
3881;SDS011;1956;53.482;10.238;2022-07-29T11:50:02;2.93;;;1.13;;
3881;SDS011;1956;53.482;10.238;2022-07-29T11:55:04;3.27;;;1.30;;
3881;SDS011;1956;53.482;10.238;2022-07-29T12:00:06;13.13;;;1.63;;
3881;SDS011;1956;53.482;10.238;2022-07-29T12:05:09;3.23;;;1.50;;
3881;SDS011;1956;53.482;10.238;2022-07-29T12:10:11;3.23;;;1.60;;
3881;SDS011;1956;53.482;10.238;2022-07-29T12:15:15;4.57;;;1.50;;
3881;SDS011;1956;53.482;10.238;2022-07-29T12:20:27;7.50;;;2.33;;
3881;SDS011;1956;53.482;10.238;2022-07-29T12:25:33;6.57;;;1.60;;
3881;SDS011;1956;53.482;10.238;2022-07-29T12:30:43;4.80;;;1.60;;
3881;SDS011;1956;53.482;10.238;2022-07-29T12:35:50;4.03;;;1.37;;
3881;SDS011;1956;53.482;10.238;2022-07-29T12:40:52;7.30;;;1.90;;
3881;SDS011;1956;53.482;10.238;2022-07-29T12:45:54;2.97;;;1.40;;
3881;SDS011;1956;53.482;10.238;2022-07-29T12:50:56;3.80;;;1.40;;
3881;SDS011;1956;53.482;10.238;2022-07-29T12:55:59;2.50;;;1.40;;
3881;SDS011;1956;53.482;10.238;2022-07-29T13:01:12;4.70;;;1.40;;
3881;SDS011;1956;53.482;10.238;2022-07-29T13:06:30;3.20;;;1.50;;
3881;SDS011;1956;53.482;10.238;2022-07-29T13:17:00;7.97;;;1.50;;
3881;SDS011;1956;53.482;10.238;2022-07-29T13:22:21;2.17;;;1.40;;
3881;SDS011;1956;53.482;10.238;2022-07-29T13:27:27;3.57;;;1.40;;
3881;SDS011;1956;53.482;10.238;2022-07-29T13:32:29;4.67;;;1.50;;
3881;SDS011;1956;53.482;10.238;2022-07-29T13:37:30;4.73;;;1.77;;
3881;SDS011;1956;53.482;10.238;2022-07-29T13:42:32;5.53;;;2.10;;
3881;SDS011;1956;53.482;10.238;2022-07-29T13:47:33;5.37;;;1.50;;
3881;SDS011;1956;53.482;10.238;2022-07-29T13:52:33;3.03;;;1.47;;
3881;SDS011;1956;53.482;10.238;2022-07-29T13:57:34;2.83;;;1.60;;
3881;SDS011;1956;53.482;10.238;2022-07-29T14:02:35;7.97;;;1.53;;
3881;SDS011;1956;53.482;10.238;2022-07-29T14:07:38;4.73;;;1.40;;
3881;SDS011;1956;53.482;10.238;2022-07-29T14:12:39;6.43;;;1.43;;
3881;SDS011;1956;53.482;10.238;2022-07-29T14:17:41;7.27;;;1.53;;
3881;SDS011;1956;53.482;10.238;2022-07-29T14:22:42;3.57;;;1.33;;
3881;SDS011;1956;53.482;10.238;2022-07-29T14:27:43;2.43;;;1.40;;
3881;SDS011;1956;53.482;10.238;2022-07-29T14:32:43;2.97;;;1.60;;
3881;SDS011;1956;53.482;10.238;2022-07-29T14:37:44;5.73;;;2.13;;
3881;SDS011;1956;53.482;10.238;2022-07-29T14:42:44;4.10;;;1.67;;
3881;SDS011;1956;53.482;10.238;2022-07-29T14:47:44;2.40;;;1.57;;
3881;SDS011;1956;53.482;10.238;2022-07-29T14:52:45;5.90;;;1.70;;
3881;SDS011;1956;53.482;10.238;2022-07-29T14:57:46;2.93;;;1.70;;
3881;SDS011;1956;53.482;10.238;2022-07-29T15:02:47;3.37;;;1.67;;
3881;SDS011;1956;53.482;10.238;2022-07-29T15:07:48;2.30;;;1.80;;
3881;SDS011;1956;53.482;10.238;2022-07-29T15:12:48;5.27;;;2.00;;
3881;SDS011;1956;53.482;10.238;2022-07-29T15:17:48;6.57;;;1.67;;
3881;SDS011;1956;53.482;10.238;2022-07-29T15:22:49;4.40;;;2.10;;
3881;SDS011;1956;53.482;10.238;2022-07-29T15:27:49;3.37;;;1.80;;
3881;SDS011;1956;53.482;10.238;2022-07-29T15:32:50;9.40;;;2.13;;
3881;SDS011;1956;53.482;10.238;2022-07-29T15:37:50;8.97;;;1.53;;
3881;SDS011;1956;53.482;10.238;2022-07-29T15:42:50;3.63;;;1.77;;
3881;SDS011;1956;53.482;10.238;2022-07-29T15:47:51;9.00;;;1.73;;
3881;SDS011;1956;53.482;10.238;2022-07-29T15:52:51;5.73;;;2.23;;
3881;SDS011;1956;53.482;10.238;2022-07-29T15:57:52;4.57;;;2.43;;
3881;SDS011;1956;53.482;10.238;2022-07-29T16:02:52;3.00;;;1.63;;
3881;SDS011;1956;53.482;10.238;2022-07-29T16:07:52;2.07;;;1.83;;
3881;SDS011;1956;53.482;10.238;2022-07-29T16:12:53;6.83;;;2.90;;
3881;SDS011;1956;53.482;10.238;2022-07-29T16:17:53;3.80;;;1.73;;
3881;SDS011;1956;53.482;10.238;2022-07-29T16:22:54;5.07;;;2.20;;
3881;SDS011;1956;53.482;10.238;2022-07-29T16:27:54;3.33;;;1.87;;
3881;SDS011;1956;53.482;10.238;2022-07-29T16:32:54;8.17;;;1.83;;
3881;SDS011;1956;53.482;10.238;2022-07-29T16:37:55;5.13;;;2.10;;
3881;SDS011;1956;53.482;10.238;2022-07-29T16:42:56;4.67;;;1.73;;
3881;SDS011;1956;53.482;10.238;2022-07-29T16:47:56;3.03;;;1.50;;
3881;SDS011;1956;53.482;10.238;2022-07-29T16:52:57;3.43;;;2.00;;
3881;SDS011;1956;53.482;10.238;2022-07-29T16:57:57;8.13;;;1.80;;
3881;SDS011;1956;53.482;10.238;2022-07-29T17:02:58;6.00;;;2.07;;
3881;SDS011;1956;53.482;10.238;2022-07-29T17:07:58;2.97;;;1.90;;
3881;SDS011;1956;53.482;10.238;2022-07-29T17:12:59;3.60;;;1.40;;
3881;SDS011;1956;53.482;10.238;2022-07-29T17:17:59;14.77;;;2.00;;
3881;SDS011;1956;53.482;10.238;2022-07-29T17:23:01;5.73;;;1.93;;
3881;SDS011;1956;53.482;10.238;2022-07-29T17:28:01;6.83;;;2.20;;
3881;SDS011;1956;53.482;10.238;2022-07-29T17:33:02;8.77;;;2.00;;
3881;SDS011;1956;53.482;10.238;2022-07-29T17:38:02;4.97;;;1.93;;
3881;SDS011;1956;53.482;10.238;2022-07-29T17:43:03;10.93;;;2.00;;
3881;SDS011;1956;53.482;10.238;2022-07-29T17:48:04;9.30;;;2.40;;
3881;SDS011;1956;53.482;10.238;2022-07-29T17:53:04;1.60;;;1.50;;
3881;SDS011;1956;53.482;10.238;2022-07-29T17:58:05;7.77;;;2.40;;
3881;SDS011;1956;53.482;10.238;2022-07-29T18:03:08;5.83;;;2.27;;
3881;SDS011;1956;53.482;10.238;2022-07-29T18:08:08;5.93;;;2.43;;
3881;SDS011;1956;53.482;10.238;2022-07-29T18:13:09;7.20;;;2.30;;
3881;SDS011;1956;53.482;10.238;2022-07-29T18:18:12;4.93;;;2.10;;
3881;SDS011;1956;53.482;10.238;2022-07-29T18:23:13;5.67;;;2.23;;
3881;SDS011;1956;53.482;10.238;2022-07-29T18:28:13;10.10;;;1.97;;
3881;SDS011;1956;53.482;10.238;2022-07-29T18:33:14;7.40;;;2.33;;
3881;SDS011;1956;53.482;10.238;2022-07-29T18:38:18;11.60;;;2.40;;
3881;SDS011;1956;53.482;10.238;2022-07-29T18:43:20;7.00;;;2.10;;
3881;SDS011;1956;53.482;10.238;2022-07-29T18:48:21;6.60;;;2.17;;
3881;SDS011;1956;53.482;10.238;2022-07-29T18:53:21;10.70;;;3.23;;
3881;SDS011;1956;53.482;10.238;2022-07-29T18:58:22;9.13;;;1.87;;
3881;SDS011;1956;53.482;10.238;2022-07-29T19:03:22;9.60;;;2.17;;
3881;SDS011;1956;53.482;10.238;2022-07-29T19:08:22;4.27;;;2.50;;
3881;SDS011;1956;53.482;10.238;2022-07-29T19:13:23;3.97;;;1.87;;
3881;SDS011;1956;53.482;10.238;2022-07-29T19:18:23;4.40;;;1.80;;
3881;SDS011;1956;53.482;10.238;2022-07-29T19:23:24;6.13;;;2.10;;
3881;SDS011;1956;53.482;10.238;2022-07-29T19:28:24;4.60;;;2.03;;
3881;SDS011;1956;53.482;10.238;2022-07-29T19:33:25;8.43;;;2.57;;
3881;SDS011;1956;53.482;10.238;2022-07-29T19:38:25;8.07;;;2.10;;
3881;SDS011;1956;53.482;10.238;2022-07-29T19:43:26;7.63;;;2.47;;
3881;SDS011;1956;53.482;10.238;2022-07-29T19:48:26;8.77;;;3.13;;
3881;SDS011;1956;53.482;10.238;2022-07-29T19:53:28;5.73;;;2.30;;
3881;SDS011;1956;53.482;10.238;2022-07-29T19:58:28;4.03;;;1.90;;
3881;SDS011;1956;53.482;10.238;2022-07-29T20:03:29;4.30;;;1.73;;
3881;SDS011;1956;53.482;10.238;2022-07-29T20:08:29;11.50;;;2.30;;
3881;SDS011;1956;53.482;10.238;2022-07-29T20:13:30;4.83;;;2.43;;
3881;SDS011;1956;53.482;10.238;2022-07-29T20:18:32;8.53;;;2.47;;
3881;SDS011;1956;53.482;10.238;2022-07-29T20:23:33;6.43;;;2.27;;
3881;SDS011;1956;53.482;10.238;2022-07-29T20:28:33;12.13;;;2.83;;
3881;SDS011;1956;53.482;10.238;2022-07-29T20:33:34;12.23;;;3.10;;
3881;SDS011;1956;53.482;10.238;2022-07-29T20:38:34;3.10;;;2.23;;
3881;SDS011;1956;53.482;10.238;2022-07-29T20:43:34;10.00;;;2.60;;
3881;SDS011;1956;53.482;10.238;2022-07-29T20:48:35;4.50;;;2.53;;
3881;SDS011;1956;53.482;10.238;2022-07-29T20:53:36;11.70;;;2.30;;
3881;SDS011;1956;53.482;10.238;2022-07-29T20:58:38;7.37;;;2.40;;
3881;SDS011;1956;53.482;10.238;2022-07-29T21:03:39;4.60;;;2.97;;
3881;SDS011;1956;53.482;10.238;2022-07-29T21:08:40;4.03;;;2.43;;
3881;SDS011;1956;53.482;10.238;2022-07-29T21:13:40;9.53;;;2.60;;
3881;SDS011;1956;53.482;10.238;2022-07-29T21:18:44;13.33;;;2.40;;
3881;SDS011;1956;53.482;10.238;2022-07-29T21:23:45;5.17;;;2.50;;
3881;SDS011;1956;53.482;10.238;2022-07-29T21:28:46;7.10;;;2.43;;
3881;SDS011;1956;53.482;10.238;2022-07-29T21:33:46;3.33;;;2.30;;
3881;SDS011;1956;53.482;10.238;2022-07-29T21:38:47;5.60;;;2.13;;
3881;SDS011;1956;53.482;10.238;2022-07-29T21:43:47;5.93;;;2.90;;
3881;SDS011;1956;53.482;10.238;2022-07-29T21:48:47;6.37;;;3.30;;
3881;SDS011;1956;53.482;10.238;2022-07-29T21:53:48;11.63;;;3.70;;
3881;SDS011;1956;53.482;10.238;2022-07-29T21:58:49;4.97;;;2.23;;
3881;SDS011;1956;53.482;10.238;2022-07-29T22:03:49;5.73;;;3.17;;
3881;SDS011;1956;53.482;10.238;2022-07-29T22:08:50;5.93;;;2.90;;
3881;SDS011;1956;53.482;10.238;2022-07-29T22:13:50;4.93;;;2.63;;
3881;SDS011;1956;53.482;10.238;2022-07-29T22:18:51;8.47;;;3.13;;
3881;SDS011;1956;53.482;10.238;2022-07-29T22:23:51;10.50;;;2.80;;
3881;SDS011;1956;53.482;10.238;2022-07-29T22:28:52;6.23;;;3.10;;
3881;SDS011;1956;53.482;10.238;2022-07-29T22:33:52;5.40;;;3.00;;
3881;SDS011;1956;53.482;10.238;2022-07-29T22:38:52;5.80;;;2.40;;
3881;SDS011;1956;53.482;10.238;2022-07-29T22:43:53;7.67;;;2.80;;
3881;SDS011;1956;53.482;10.238;2022-07-29T22:48:53;5.90;;;2.33;;
3881;SDS011;1956;53.482;10.238;2022-07-29T22:53:54;5.43;;;2.40;;
3881;SDS011;1956;53.482;10.238;2022-07-29T22:58:54;13.53;;;2.50;;
3881;SDS011;1956;53.482;10.238;2022-07-29T23:03:54;5.43;;;2.97;;
3881;SDS011;1956;53.482;10.238;2022-07-29T23:08:55;5.53;;;3.00;;
3881;SDS011;1956;53.482;10.238;2022-07-29T23:13:55;11.27;;;2.60;;
3881;SDS011;1956;53.482;10.238;2022-07-29T23:18:56;7.40;;;1.93;;
3881;SDS011;1956;53.482;10.238;2022-07-29T23:23:56;5.33;;;2.40;;
3881;SDS011;1956;53.482;10.238;2022-07-29T23:28:56;2.37;;;1.90;;
3881;SDS011;1956;53.482;10.238;2022-07-29T23:33:57;13.13;;;2.40;;
3881;SDS011;1956;53.482;10.238;2022-07-29T23:38:57;3.40;;;2.10;;
3881;SDS011;1956;53.482;10.238;2022-07-29T23:43:58;2.07;;;1.87;;
3881;SDS011;1956;53.482;10.238;2022-07-29T23:48:58;4.47;;;2.00;;
3881;SDS011;1956;53.482;10.238;2022-07-29T23:53:59;2.53;;;2.10;;
3881;SDS011;1956;53.482;10.238;2022-07-29T23:58:59;3.10;;;1.70;;
